createdAt,value
2023-04-30T00:00:27.746Z,13.20
2023-04-30T00:02:54.849Z,13.30
2023-04-30T00:05:21.773Z,13.10
2023-04-30T00:07:48.626Z,13.20
2023-04-30T00:10:15.590Z,13.00
2023-04-30T00:12:42.497Z,13.70
2023-04-30T00:15:09.793Z,12.30
2023-04-30T00:17:36.710Z,12.50
2023-04-30T00:20:04.363Z,12.90
2023-04-30T00:22:31.254Z,12.40
2023-04-30T00:24:58.240Z,12.10
2023-04-30T00:27:25.128Z,12.50
2023-04-30T00:29:52.301Z,12.80
2023-04-30T00:32:24.345Z,12.70
2023-04-30T00:34:51.686Z,15.50
2023-04-30T00:37:18.535Z,15.30
2023-04-30T00:39:45.472Z,14.60
2023-04-30T00:42:12.423Z,13.20
2023-04-30T00:44:39.320Z,12.20
2023-04-30T00:47:06.309Z,11.10
2023-04-30T00:49:33.409Z,10.60
2023-04-30T00:52:01.430Z,10.50
2023-04-30T00:54:28.418Z,10.40
2023-04-30T00:56:55.584Z,10.20
2023-04-30T00:59:22.405Z,10.20
2023-04-30T01:01:49.334Z,9.30
2023-04-30T01:04:16.223Z,9.60
2023-04-30T01:06:43.490Z,10.10
2023-04-30T01:09:10.629Z,9.50
2023-04-30T01:11:45.103Z,8.80
2023-04-30T01:14:25.406Z,8.40
2023-04-30T01:19:38.429Z,9.80
2023-04-30T01:22:05.671Z,9.90
2023-04-30T01:24:41.950Z,9.90
2023-04-30T01:27:46.466Z,9.60
2023-04-30T01:30:13.764Z,9.50
2023-04-30T01:32:40.776Z,8.80
2023-04-30T01:35:07.890Z,8.80
2023-04-30T01:37:51.702Z,8.00
2023-04-30T01:40:29.755Z,8.30
2023-04-30T01:43:05.271Z,8.40
2023-04-30T01:45:56.871Z,7.90
2023-04-30T01:48:42.918Z,7.80
2023-04-30T01:51:42.928Z,7.80
2023-04-30T01:54:24.402Z,7.70
2023-04-30T01:57:07.344Z,7.90
2023-04-30T01:59:38.970Z,7.40
2023-04-30T02:02:06.444Z,8.00
2023-04-30T02:04:33.460Z,7.40
2023-04-30T02:07:00.465Z,7.50
2023-04-30T02:09:27.715Z,8.20
2023-04-30T02:11:54.586Z,8.60
2023-04-30T02:14:21.482Z,8.20
2023-04-30T02:16:52.457Z,7.90
2023-04-30T02:19:19.369Z,7.20
2023-04-30T02:21:46.306Z,7.80
2023-04-30T02:24:13.232Z,7.00
2023-04-30T02:26:40.116Z,7.20
2023-04-30T02:35:55.280Z,7.50
2023-04-30T02:38:22.330Z,6.90
2023-04-30T02:40:49.281Z,7.40
2023-04-30T02:43:16.217Z,6.50
2023-04-30T02:45:43.295Z,6.70
2023-04-30T02:48:10.191Z,6.80
2023-04-30T02:50:37.095Z,7.10
2023-04-30T02:53:03.996Z,7.30
2023-04-30T02:55:32.968Z,6.70
2023-04-30T02:57:59.931Z,6.90
2023-04-30T03:00:27.323Z,7.00
2023-04-30T03:02:54.419Z,6.70
2023-04-30T03:05:21.679Z,6.20
2023-04-30T03:07:48.557Z,6.40
2023-04-30T03:10:16.326Z,6.70
2023-04-30T03:12:43.221Z,5.90
2023-04-30T03:15:10.845Z,6.00
2023-04-30T03:17:37.874Z,6.30
2023-04-30T03:20:05.214Z,6.00
2023-04-30T03:22:32.097Z,6.40
2023-04-30T03:24:59.065Z,6.40
2023-04-30T03:27:26.380Z,6.50
2023-04-30T03:29:53.351Z,6.40
2023-04-30T03:32:20.398Z,6.90
2023-04-30T03:34:47.389Z,6.60
2023-04-30T03:37:14.313Z,6.50
2023-04-30T03:39:41.416Z,7.40
2023-04-30T03:42:08.459Z,6.30
2023-04-30T03:44:35.740Z,6.50
2023-04-30T03:47:02.619Z,7.10
2023-04-30T03:49:29.458Z,6.00
2023-04-30T03:51:56.637Z,6.30
2023-04-30T03:54:23.606Z,6.90
2023-04-30T03:56:50.527Z,6.60
2023-04-30T03:59:17.579Z,6.70
2023-04-30T04:01:44.660Z,6.80
2023-04-30T04:06:58.386Z,7.10
2023-04-30T04:09:25.281Z,6.50
2023-04-30T04:11:52.236Z,7.40
2023-04-30T04:14:19.340Z,7.00
2023-04-30T04:16:46.989Z,6.00
2023-04-30T04:19:14.099Z,7.20
2023-04-30T04:21:41.041Z,6.10
2023-04-30T04:24:13.660Z,6.40
2023-04-30T04:26:41.597Z,6.60
2023-04-30T04:29:12.338Z,7.10
2023-04-30T04:31:41.797Z,6.80
2023-04-30T04:34:08.727Z,7.50
2023-04-30T04:36:36.826Z,7.00
2023-04-30T04:39:04.189Z,7.60
2023-04-30T04:41:32.924Z,6.90
2023-04-30T04:44:01.982Z,8.10
2023-04-30T04:46:30.426Z,6.80
2023-04-30T04:48:58.194Z,6.30
2023-04-30T04:51:25.168Z,6.60
2023-04-30T04:53:52.101Z,6.30
2023-04-30T04:56:19.148Z,7.50
2023-04-30T04:58:46.529Z,7.20
2023-04-30T05:01:13.608Z,5.90
2023-04-30T05:03:40.721Z,6.60
2023-04-30T05:06:07.926Z,6.10
2023-04-30T05:08:34.920Z,6.10
2023-04-30T05:11:01.975Z,6.10
2023-04-30T05:13:28.941Z,6.50
2023-04-30T05:15:56.576Z,5.50
2023-04-30T05:18:23.583Z,6.30
2023-04-30T05:20:50.743Z,6.10
2023-04-30T05:23:17.663Z,6.90
2023-04-30T05:25:44.518Z,5.60
2023-04-30T05:28:11.827Z,5.80
2023-04-30T05:30:38.848Z,5.80
2023-04-30T05:33:05.725Z,6.00
2023-04-30T05:35:36.255Z,5.60
2023-04-30T05:38:04.155Z,6.30
2023-04-30T05:40:31.241Z,6.10
2023-04-30T05:42:58.152Z,6.40
2023-04-30T05:45:25.121Z,6.40
2023-04-30T05:47:52.102Z,6.00
2023-04-30T05:50:19.153Z,5.60
2023-04-30T05:52:46.233Z,5.70
2023-04-30T05:55:13.516Z,5.50
2023-04-30T05:57:40.612Z,6.10
2023-04-30T06:00:08.251Z,6.10
2023-04-30T06:02:41.492Z,5.60
2023-04-30T06:05:09.107Z,5.80
2023-04-30T06:07:36.040Z,5.90
2023-04-30T06:10:03.458Z,6.60
2023-04-30T06:12:30.318Z,6.70
2023-04-30T06:14:57.696Z,6.40
2023-04-30T06:17:24.789Z,6.30
2023-04-30T06:19:52.065Z,6.60
2023-04-30T06:22:19.118Z,5.90
2023-04-30T06:24:46.025Z,6.00
2023-04-30T06:27:13.052Z,6.20
2023-04-30T06:29:40.137Z,5.90
2023-04-30T06:32:08.547Z,5.90
2023-04-30T06:34:36.542Z,5.20
2023-04-30T06:37:03.683Z,5.10
2023-04-30T06:39:30.890Z,5.20
2023-04-30T06:41:58.189Z,4.30
2023-04-30T06:44:25.446Z,3.90
2023-04-30T06:46:52.540Z,4.30
2023-04-30T06:49:19.549Z,4.20
2023-04-30T06:51:46.428Z,4.80
2023-04-30T06:54:14.448Z,4.10
2023-04-30T06:56:41.532Z,4.10
2023-04-30T06:59:08.995Z,3.80
2023-04-30T07:01:35.945Z,3.50
2023-04-30T07:04:02.957Z,4.50
2023-04-30T07:06:30.827Z,3.60
2023-04-30T07:08:57.898Z,3.70
2023-04-30T07:11:24.903Z,3.40
2023-04-30T07:13:51.833Z,3.50
2023-04-30T07:16:18.723Z,3.90
2023-04-30T07:18:48.977Z,3.50
2023-04-30T07:21:16.512Z,3.00
2023-04-30T07:23:44.337Z,3.40
2023-04-30T07:26:11.372Z,3.40
2023-04-30T07:28:38.251Z,3.50
2023-04-30T07:31:05.313Z,2.40
2023-04-30T07:33:32.203Z,2.10
2023-04-30T07:35:59.217Z,3.30
2023-04-30T07:38:26.033Z,2.30
2023-04-30T07:40:53.029Z,2.10
2023-04-30T07:43:19.940Z,2.50
2023-04-30T07:45:46.972Z,2.00
2023-04-30T07:48:13.895Z,1.90
2023-04-30T07:50:40.965Z,2.80
2023-04-30T07:53:09.636Z,1.90
2023-04-30T07:55:36.638Z,2.10
2023-04-30T07:58:04.563Z,2.20
2023-04-30T08:00:31.510Z,1.90
2023-04-30T08:02:59.265Z,1.70
2023-04-30T08:05:28.025Z,1.80
2023-04-30T08:07:54.895Z,1.50
2023-04-30T08:10:21.911Z,2.00
2023-04-30T08:12:48.994Z,1.50
2023-04-30T08:15:15.839Z,1.50
2023-04-30T08:17:43.021Z,2.00
2023-04-30T08:20:10.774Z,1.90
2023-04-30T08:22:37.626Z,1.70
2023-04-30T08:25:04.787Z,1.80
2023-04-30T08:27:32.468Z,1.40
2023-04-30T08:29:59.471Z,2.00
2023-04-30T08:32:26.436Z,1.60
2023-04-30T08:34:53.651Z,2.40
2023-04-30T08:37:20.920Z,1.80
2023-04-30T08:39:47.887Z,2.10
2023-04-30T08:42:15.325Z,1.90
2023-04-30T08:44:44.057Z,1.90
2023-04-30T08:47:13.351Z,2.30
2023-04-30T08:49:41.137Z,2.20
2023-04-30T08:52:08.614Z,2.00
2023-04-30T08:54:38.800Z,1.60
2023-04-30T08:57:05.919Z,1.80
2023-04-30T08:59:32.717Z,1.40
2023-04-30T09:02:03.012Z,1.60
2023-04-30T09:04:30.784Z,2.00
2023-04-30T09:06:59.462Z,1.80
2023-04-30T09:09:30.739Z,1.60
2023-04-30T09:12:16.898Z,1.80
2023-04-30T09:15:02.437Z,2.00
2023-04-30T09:17:29.789Z,2.20
2023-04-30T09:20:13.059Z,1.30
2023-04-30T09:25:08.172Z,1.10
2023-04-30T09:27:35.089Z,1.50
2023-04-30T09:30:02.075Z,1.60
2023-04-30T09:32:29.192Z,1.10
2023-04-30T09:34:56.094Z,1.20
2023-04-30T09:37:22.985Z,2.10
2023-04-30T09:39:56.692Z,1.40
2023-04-30T09:42:23.836Z,1.50
2023-04-30T09:44:53.432Z,1.90
2023-04-30T09:47:21.092Z,2.30
2023-04-30T09:49:48.638Z,1.30
2023-04-30T09:52:15.756Z,1.80
2023-04-30T09:54:42.599Z,1.60
2023-04-30T09:57:11.193Z,1.30
2023-04-30T09:59:39.823Z,1.60
2023-04-30T10:02:07.742Z,1.30
2023-04-30T10:04:39.744Z,1.50
2023-04-30T10:07:15.406Z,1.60
2023-04-30T10:09:57.706Z,1.60
2023-04-30T10:12:27.444Z,1.20
2023-04-30T10:15:15.140Z,1.50
2023-04-30T10:17:42.636Z,1.60
2023-04-30T10:20:10.615Z,1.50
2023-04-30T10:22:37.492Z,1.20
2023-04-30T10:25:04.743Z,1.50
2023-04-30T10:27:33.184Z,1.50
2023-04-30T10:30:00.054Z,1.30
2023-04-30T10:32:32.375Z,2.00
2023-04-30T10:35:06.445Z,1.80
2023-04-30T10:38:22.094Z,1.40
2023-04-30T10:40:49.114Z,1.30
2023-04-30T10:43:18.829Z,1.50
2023-04-30T10:45:46.329Z,1.50
2023-04-30T10:48:14.679Z,1.40
2023-04-30T10:50:46.295Z,1.00
2023-04-30T10:53:16.223Z,1.20
2023-04-30T10:55:47.176Z,1.30
2023-04-30T10:58:36.834Z,1.30
2023-04-30T11:01:09.592Z,1.30
2023-04-30T11:03:37.386Z,1.20
2023-04-30T11:06:26.688Z,1.40
2023-04-30T11:08:53.626Z,1.20
2023-04-30T11:11:24.033Z,1.30
2023-04-30T11:14:01.441Z,1.70
2023-04-30T11:16:33.572Z,2.00
2023-04-30T11:19:11.641Z,1.20
2023-04-30T11:21:44.750Z,1.20
2023-04-30T11:24:11.713Z,1.20
2023-04-30T11:27:04.649Z,1.70
2023-04-30T11:29:32.154Z,1.80
2023-04-30T11:32:02.439Z,1.70
2023-04-30T11:34:29.383Z,2.10
2023-04-30T11:36:57.039Z,1.60
2023-04-30T11:39:24.798Z,1.40
2023-04-30T11:41:51.628Z,1.70
2023-04-30T11:44:27.853Z,1.60
2023-04-30T11:46:55.009Z,1.40
2023-04-30T11:49:21.915Z,1.30
2023-04-30T11:51:49.993Z,1.30
2023-04-30T11:54:16.883Z,1.60
2023-04-30T11:56:50.282Z,1.60
2023-04-30T11:59:17.687Z,1.60
2023-04-30T12:01:44.758Z,1.60
2023-04-30T12:04:16.760Z,1.90
2023-04-30T12:06:43.842Z,1.50
2023-04-30T12:09:11.803Z,1.60
2023-04-30T12:11:38.907Z,1.80
2023-04-30T12:14:12.917Z,1.70
2023-04-30T12:16:50.529Z,1.40
2023-04-30T12:19:22.050Z,1.40
2023-04-30T12:21:49.184Z,1.50
2023-04-30T12:24:17.244Z,1.90
2023-04-30T12:26:44.303Z,1.60
2023-04-30T12:29:15.905Z,1.80
2023-04-30T12:31:43.276Z,1.90
2023-04-30T12:34:12.324Z,1.30
2023-04-30T12:36:42.565Z,1.40
2023-04-30T12:39:13.700Z,1.80
2023-04-30T12:41:44.847Z,2.30
2023-04-30T12:44:22.201Z,2.00
2023-04-30T12:46:49.951Z,1.90
2023-04-30T12:49:43.351Z,1.60
2023-04-30T12:54:38.901Z,1.60
2023-04-30T12:57:07.688Z,1.50
2023-04-30T12:59:52.011Z,1.30
2023-04-30T13:02:18.954Z,1.20
2023-04-30T13:04:45.962Z,1.50
2023-04-30T13:07:12.970Z,1.60
2023-04-30T13:09:39.860Z,1.50
2023-04-30T13:12:07.292Z,1.40
2023-04-30T13:14:34.226Z,1.90
2023-04-30T13:17:05.000Z,2.10
2023-04-30T13:19:31.928Z,1.50
2023-04-30T13:21:59.050Z,1.80
2023-04-30T13:24:28.169Z,1.80
2023-04-30T13:26:55.096Z,1.30
2023-04-30T13:29:22.019Z,1.20
2023-04-30T13:31:49.199Z,1.60
2023-04-30T13:34:16.434Z,1.50
2023-04-30T13:36:43.386Z,1.10
2023-04-30T13:39:10.333Z,1.40
2023-04-30T13:41:37.344Z,1.30
2023-04-30T13:44:04.378Z,1.20
2023-04-30T13:46:31.433Z,1.30
2023-04-30T13:48:58.486Z,1.80
2023-04-30T13:51:25.455Z,0.90
2023-04-30T13:53:52.823Z,1.10
2023-04-30T13:56:19.703Z,1.60
2023-04-30T13:58:46.700Z,2.00
2023-04-30T14:01:14.644Z,1.60
2023-04-30T14:03:41.719Z,2.00
2023-04-30T14:06:08.893Z,1.40
2023-04-30T14:08:35.745Z,1.40
2023-04-30T14:11:02.592Z,1.30
2023-04-30T14:13:29.794Z,1.40
2023-04-30T14:15:56.680Z,1.60
2023-04-30T14:18:23.623Z,1.40
2023-04-30T14:20:51.067Z,1.50
2023-04-30T14:23:18.014Z,1.20
2023-04-30T14:25:44.889Z,1.80
2023-04-30T14:28:12.104Z,1.40
2023-04-30T14:30:39.012Z,1.80
2023-04-30T14:33:06.661Z,1.40
2023-04-30T14:35:33.699Z,2.20
2023-04-30T14:38:00.722Z,1.50
2023-04-30T14:40:27.762Z,1.50
2023-04-30T14:42:54.638Z,1.50
2023-04-30T14:45:21.501Z,2.00
2023-04-30T14:47:48.866Z,2.20
2023-04-30T14:50:15.954Z,1.70
2023-04-30T14:52:43.176Z,1.80
2023-04-30T14:55:10.076Z,1.70
2023-04-30T14:57:36.950Z,1.60
2023-04-30T15:00:04.528Z,2.00
2023-04-30T15:02:31.739Z,1.40
2023-04-30T15:04:58.661Z,1.40
2023-04-30T15:07:25.593Z,1.40
2023-04-30T15:09:52.937Z,1.50
2023-04-30T15:12:20.207Z,1.50
2023-04-30T15:14:47.132Z,1.70
2023-04-30T15:17:14.258Z,2.20
2023-04-30T15:19:41.118Z,2.00
2023-04-30T15:22:07.965Z,1.90
2023-04-30T15:24:35.033Z,2.10
2023-04-30T15:27:02.009Z,1.90
2023-04-30T15:29:28.883Z,2.50
2023-04-30T15:31:55.890Z,2.10
2023-04-30T15:34:22.984Z,2.30
2023-04-30T15:36:49.940Z,1.90
2023-04-30T15:39:17.914Z,2.40
2023-04-30T15:41:45.028Z,2.40
2023-04-30T15:44:12.024Z,2.10
2023-04-30T15:46:38.927Z,2.10
2023-04-30T15:49:05.856Z,2.40
2023-04-30T15:51:35.277Z,2.20
2023-04-30T15:54:02.616Z,2.70
2023-04-30T15:56:29.566Z,2.60
2023-04-30T15:58:57.143Z,2.10
2023-04-30T16:01:24.123Z,2.40
2023-04-30T16:03:51.399Z,2.20
2023-04-30T16:06:18.601Z,2.30
2023-04-30T16:08:46.583Z,2.00
2023-04-30T16:11:13.708Z,2.20
2023-04-30T16:13:40.594Z,2.10
2023-04-30T16:16:08.908Z,2.90
2023-04-30T16:18:35.956Z,2.00
2023-04-30T16:21:02.826Z,2.20
2023-04-30T16:24:25.405Z,2.10
2023-04-30T16:26:52.306Z,2.10
2023-04-30T16:29:19.411Z,2.70
2023-04-30T16:31:47.974Z,2.10
2023-04-30T16:34:14.956Z,2.30
2023-04-30T16:36:42.013Z,2.40
2023-04-30T16:39:08.875Z,2.50
2023-04-30T16:41:35.823Z,2.20
2023-04-30T16:44:02.778Z,2.40
2023-04-30T16:46:29.887Z,2.40
2023-04-30T16:48:56.981Z,2.10
2023-04-30T16:51:23.934Z,2.20
2023-04-30T16:58:08.334Z,2.20
2023-04-30T17:00:35.783Z,3.10
2023-04-30T17:07:38.277Z,2.80
2023-04-30T17:10:06.326Z,2.90
2023-04-30T17:12:33.503Z,3.60
2023-04-30T17:16:22.361Z,4.10
2023-04-30T17:18:49.352Z,4.20
2023-04-30T17:21:16.326Z,4.60
2023-04-30T17:23:43.289Z,4.50
2023-04-30T17:26:10.203Z,4.70
2023-04-30T17:28:37.552Z,5.40
2023-04-30T17:31:07.283Z,5.30
2023-04-30T17:33:34.416Z,5.50
2023-04-30T17:36:01.463Z,5.40
2023-04-30T17:38:28.449Z,5.90
2023-04-30T17:40:58.012Z,5.50
2023-04-30T17:43:25.057Z,5.60
2023-04-30T17:45:53.612Z,6.90
2023-04-30T17:48:20.729Z,6.40
2023-04-30T17:50:47.824Z,6.00
2023-04-30T17:53:14.765Z,5.90
2023-04-30T17:55:41.841Z,5.80
2023-04-30T17:58:11.777Z,5.20
2023-04-30T18:00:39.545Z,5.30
2023-04-30T18:03:06.994Z,5.10
2023-04-30T18:05:35.621Z,5.10
2023-04-30T18:08:03.058Z,5.40
2023-04-30T18:10:30.009Z,5.20
2023-04-30T18:13:00.030Z,5.50
2023-04-30T18:15:27.626Z,6.70
2023-04-30T18:18:00.362Z,5.70
2023-04-30T18:20:28.244Z,6.20
2023-04-30T18:22:55.157Z,6.20
2023-04-30T18:25:22.816Z,5.60
2023-04-30T18:27:51.552Z,4.90
2023-04-30T18:30:18.593Z,4.70
2023-04-30T18:32:45.600Z,5.50
2023-04-30T18:35:12.508Z,4.50
2023-04-30T18:37:44.272Z,5.50
2023-04-30T18:40:11.790Z,5.90
2023-04-30T18:42:38.883Z,5.60
2023-04-30T18:45:06.820Z,6.40
2023-04-30T18:47:33.794Z,5.90
2023-04-30T18:50:00.733Z,5.60
2023-04-30T18:52:27.992Z,8.00
2023-04-30T18:54:55.561Z,5.60
2023-04-30T18:57:22.626Z,6.60
2023-04-30T18:59:49.542Z,6.90
2023-04-30T19:02:16.564Z,6.80
2023-04-30T19:04:43.537Z,6.70
2023-04-30T19:07:10.564Z,7.40
2023-04-30T19:09:37.494Z,8.50
2023-04-30T19:12:04.600Z,7.60
2023-04-30T19:14:31.823Z,7.40
2023-04-30T19:17:00.373Z,7.70
2023-04-30T19:19:27.990Z,8.60
2023-04-30T19:21:54.924Z,8.10
2023-04-30T19:24:22.787Z,8.80
2023-04-30T19:26:50.974Z,8.30
2023-04-30T19:29:19.848Z,7.60
2023-04-30T19:31:46.956Z,7.90
2023-04-30T19:34:14.236Z,8.00
2023-04-30T19:36:44.192Z,8.20
2023-04-30T19:39:12.058Z,8.60
2023-04-30T19:41:39.305Z,9.50
2023-04-30T19:44:07.891Z,8.50
2023-04-30T19:46:35.132Z,8.20
2023-04-30T19:49:02.117Z,7.80
2023-04-30T19:51:29.048Z,9.50
2023-04-30T19:53:59.074Z,8.30
2023-04-30T19:56:26.536Z,8.90
2023-04-30T19:58:53.568Z,10.80
2023-04-30T20:01:20.542Z,9.10
2023-04-30T20:03:48.763Z,9.20
2023-04-30T20:06:15.902Z,8.70
2023-04-30T20:08:47.478Z,9.00
2023-04-30T20:11:14.879Z,9.10
2023-04-30T20:13:41.790Z,8.70
2023-04-30T20:16:12.687Z,8.60
2023-04-30T20:18:39.922Z,8.50
2023-04-30T20:21:06.937Z,8.80
2023-04-30T20:23:34.323Z,9.10
2023-04-30T20:26:06.177Z,8.70
2023-04-30T20:28:33.398Z,8.70
2023-04-30T20:31:00.912Z,9.50
2023-04-30T20:33:29.103Z,9.10
2023-04-30T20:35:58.173Z,8.90
2023-04-30T20:38:25.050Z,8.20
2023-04-30T20:40:52.036Z,8.30
2023-04-30T20:43:20.575Z,8.30
2023-04-30T20:45:48.525Z,9.00
2023-04-30T20:48:16.214Z,8.70
2023-04-30T20:50:44.456Z,8.20
2023-04-30T20:53:12.554Z,7.90
2023-04-30T20:55:43.791Z,8.40
2023-04-30T20:58:12.886Z,7.70
2023-04-30T21:00:39.846Z,6.40
